Hensel, ND (58241)

12:17 AM CDT on August 30, 2016 (GMT -0500)
West St Thomas | | Change Station

Elev 876 ft 48.67 °N, 97.56 °W | Updated 16 minutes ago

Clear
Clear
55.8 °F
Feels Like 55.8 °F
N
0.0
Wind Variable Wind from ESE
Gusts 0.0 mph

Today
High -- | Low -- °F
--% Chance of Precip.
Yesterday
High -- | Low -- °F
Precip. -- in
Pressure 30.21 in
Visibility 10.0 miles
Clouds Clear
Dew Point 53 °F
Humidity 93%
Rainfall 0.00 in
Snow Depth Not available.
6:45 AM 8:15 PM
Waning Crescent, 5% visible
METAR K2C8 300455Z AUTO 29003KT 10SM CLR 12/10 A3021 RMK AO2
Pressure 30.21 in
Visibility 10.0 miles
Clouds Clear
Dew Point 53 °F
Humidity 93%
Rainfall 0.00 in
Snow Depth Not available.
6:45 AM 8:15 PM
Waning Crescent, 5% visible
METAR K2C8 300455Z AUTO 29003KT 10SM CLR 12/10 A3021 RMK AO2

10-Day Weather Forecast

Almanac

Astronomy

Aug. 30, 2016 Rise Set
Actual Time
Civil Twilight
Nautical Twilight
Astronomical Twilight
Moon
Length of Visible Light
Length of Day
Tomorrow will be .
, % of the Moon is Illuminated

Today's Extremes

State Highs State Lows

Community

WunderPhotos

Upload Photos

1,935,793 photos uploaded!

WunderBlog® & News

Nearby

Air Quality

  Air Quality AQ Index Pollutant
Not available.

Snow Depth

Station Depth Elevation

Earthquake Activity

City Distance Mag. Time & Date
Minimum magnitude displayed is 2.5.

Coastal Water Temperatures

Place Temperature

Stations

Nearby Weather Stations

Station Location Temp. Windchill Dew Point Humidity Wind Precip. Elev Updated Type
                   

Watches & Warnings

There are currently no watches in effect.